Scroll down
FLIGHT INFORMATION
Virgin Blue

VOZ728

At Arrival Gate

YPKG
 YPPH
DATE: 2021-01-26
GATE: 
GATE DEPARTURE: 05:18
TAKEOFF: 05:24
DATE: 2021-01-26
GATE:  -
LANDING: 06:27
GATE ARRIVAL: 06:33
FLIGHT DATA
Crew: 
Speed: 
876 kph
Altitude: 
38,000 ft
Stage Length: 
537.1 km
Block Time: 
1.2 hrs
Flight Time: 
1 hrs
Fuel Used: 
2,899 kg
Cleared Route: YPKG KG NALAR BIRER HAMTN GRENE YPPH
TRACK DATA
50,000 ft 1,000 kts
AIRCRAFT INFO AND CUMULATIVE STATS
Aircraft Type: 
B737BW
Registration: 
SELCAL: 
NULL
MSN/LN: 
30638 / 858
Operator: 
Total Flights: 
1
Total Block Time: 
1.2 hrs
Total Flight Time: 
1 hrs
Total Fuel Used: 
2,899 kg
DATALINK LOG | Newest first | Current as of: 2022-08-18 16:38:46
LABEL SEQUENCE CONTENT Dn/Up
QD012206:33 7.7▼ Dn
QC541806:27▼ Dn
2U3414YPPH 242130Z 18007KT CAVOK 18/11 Q1009▲ Up
2S0830YPPH▼ Dn
QB592205:24▼ Dn
QA531605:18 14.1▼ Dn
A34315CLEARED TO YPPH VIA KG Q41 HAMTN Z52 GRENE GREN5A. SQUAWK 2461.▲ Up
B34306YPKG YPPH G ▼ Dn
Q04104[LINK ACK]▲ Up
Q04104[LINK TEST]▼ Dn


AIRCRAFT HISTORY
FLIGHT DATE FLIGHT NO. ORIGIN DESTINATION CLEARED ROUTE BLOCK TIME FLIGHT TIME FUEL USED PILOT
2021-01-26VOZ728YPKG YPPH YPKG KG NALAR BIRER HAMTN GRENE YPPH1.2 hrs1 hrs6,391 lbMike Dryden